sensor_id;sensor_type;location;lat;lon;timestamp;P1;durP1;ratioP1;P2;durP2;ratioP2
3801;SDS011;1916;51.798;12.246;2023-03-01T00:01:00;28.30;;;15.00;;
3801;SDS011;1916;51.798;12.246;2023-03-01T00:03:09;27.37;;;14.37;;
3801;SDS011;1916;51.798;12.246;2023-03-01T00:05:11;28.37;;;14.60;;
3801;SDS011;1916;51.798;12.246;2023-03-01T00:07:14;29.27;;;13.67;;
3801;SDS011;1916;51.798;12.246;2023-03-01T00:09:16;23.47;;;13.20;;
3801;SDS011;1916;51.798;12.246;2023-03-01T00:11:23;25.83;;;14.23;;
3801;SDS011;1916;51.798;12.246;2023-03-01T00:13:32;30.37;;;15.60;;
3801;SDS011;1916;51.798;12.246;2023-03-01T00:15:37;31.67;;;14.70;;
3801;SDS011;1916;51.798;12.246;2023-03-01T00:17:40;30.77;;;15.33;;
3801;SDS011;1916;51.798;12.246;2023-03-01T00:19:42;24.47;;;14.00;;
3801;SDS011;1916;51.798;12.246;2023-03-01T00:21:45;33.53;;;15.57;;
3801;SDS011;1916;51.798;12.246;2023-03-01T00:23:47;26.33;;;13.10;;
3801;SDS011;1916;51.798;12.246;2023-03-01T00:25:50;21.40;;;13.53;;
3801;SDS011;1916;51.798;12.246;2023-03-01T00:27:53;22.20;;;12.90;;
3801;SDS011;1916;51.798;12.246;2023-03-01T00:29:55;20.60;;;12.07;;
3801;SDS011;1916;51.798;12.246;2023-03-01T00:31:57;28.93;;;14.17;;
3801;SDS011;1916;51.798;12.246;2023-03-01T00:34:00;22.43;;;12.67;;
3801;SDS011;1916;51.798;12.246;2023-03-01T00:36:03;18.20;;;11.27;;
3801;SDS011;1916;51.798;12.246;2023-03-01T00:38:05;21.80;;;12.10;;
3801;SDS011;1916;51.798;12.246;2023-03-01T00:40:08;24.47;;;11.57;;
3801;SDS011;1916;51.798;12.246;2023-03-01T00:42:11;22.00;;;12.53;;
3801;SDS011;1916;51.798;12.246;2023-03-01T00:44:13;18.70;;;11.77;;
3801;SDS011;1916;51.798;12.246;2023-03-01T00:46:16;17.70;;;11.33;;
3801;SDS011;1916;51.798;12.246;2023-03-01T00:48:20;16.07;;;11.10;;
3801;SDS011;1916;51.798;12.246;2023-03-01T00:50:23;30.43;;;11.40;;
3801;SDS011;1916;51.798;12.246;2023-03-01T00:52:25;19.00;;;10.57;;
3801;SDS011;1916;51.798;12.246;2023-03-01T00:54:27;16.20;;;10.90;;
3801;SDS011;1916;51.798;12.246;2023-03-01T00:56:29;17.97;;;9.90;;
3801;SDS011;1916;51.798;12.246;2023-03-01T00:58:33;17.47;;;9.60;;
3801;SDS011;1916;51.798;12.246;2023-03-01T01:00:35;17.50;;;10.73;;
3801;SDS011;1916;51.798;12.246;2023-03-01T01:02:37;14.70;;;10.00;;
3801;SDS011;1916;51.798;12.246;2023-03-01T01:04:40;21.43;;;10.10;;
3801;SDS011;1916;51.798;12.246;2023-03-01T01:06:43;21.70;;;11.23;;
3801;SDS011;1916;51.798;12.246;2023-03-01T01:08:47;21.60;;;10.77;;
3801;SDS011;1916;51.798;12.246;2023-03-01T01:10:50;22.60;;;10.90;;
3801;SDS011;1916;51.798;12.246;2023-03-01T01:12:52;19.70;;;11.27;;
3801;SDS011;1916;51.798;12.246;2023-03-01T01:14:54;15.70;;;10.00;;
3801;SDS011;1916;51.798;12.246;2023-03-01T01:16:56;22.43;;;10.90;;
3801;SDS011;1916;51.798;12.246;2023-03-01T01:18:58;24.80;;;12.03;;
3801;SDS011;1916;51.798;12.246;2023-03-01T01:21:07;24.38;;;11.38;;
3801;SDS011;1916;51.798;12.246;2023-03-01T01:23:11;18.87;;;11.67;;
3801;SDS011;1916;51.798;12.246;2023-03-01T01:25:13;26.27;;;12.30;;
3801;SDS011;1916;51.798;12.246;2023-03-01T01:27:15;23.23;;;13.07;;
3801;SDS011;1916;51.798;12.246;2023-03-01T01:29:17;25.23;;;12.37;;
3801;SDS011;1916;51.798;12.246;2023-03-01T01:31:20;23.90;;;11.73;;
3801;SDS011;1916;51.798;12.246;2023-03-01T01:33:25;24.70;;;13.50;;
3801;SDS011;1916;51.798;12.246;2023-03-01T01:35:28;27.07;;;13.43;;
3801;SDS011;1916;51.798;12.246;2023-03-01T01:37:30;34.63;;;12.77;;
3801;SDS011;1916;51.798;12.246;2023-03-01T01:39:33;19.70;;;11.60;;
3801;SDS011;1916;51.798;12.246;2023-03-01T01:41:36;23.40;;;11.67;;
3801;SDS011;1916;51.798;12.246;2023-03-01T01:43:39;24.83;;;12.70;;
3801;SDS011;1916;51.798;12.246;2023-03-01T01:45:43;22.73;;;11.03;;
3801;SDS011;1916;51.798;12.246;2023-03-01T01:47:45;25.03;;;12.10;;
3801;SDS011;1916;51.798;12.246;2023-03-01T01:49:51;24.20;;;11.90;;
3801;SDS011;1916;51.798;12.246;2023-03-01T01:52:07;23.73;;;10.93;;
3801;SDS011;1916;51.798;12.246;2023-03-01T01:54:14;19.63;;;9.87;;
3801;SDS011;1916;51.798;12.246;2023-03-01T01:56:20;20.80;;;9.40;;
3801;SDS011;1916;51.798;12.246;2023-03-01T01:58:24;18.60;;;10.10;;
3801;SDS011;1916;51.798;12.246;2023-03-01T02:00:29;14.10;;;9.53;;
3801;SDS011;1916;51.798;12.246;2023-03-01T02:02:31;21.57;;;10.20;;
3801;SDS011;1916;51.798;12.246;2023-03-01T02:04:33;19.20;;;10.37;;
3801;SDS011;1916;51.798;12.246;2023-03-01T02:06:37;15.60;;;10.10;;
3801;SDS011;1916;51.798;12.246;2023-03-01T02:08:52;16.57;;;9.33;;
3801;SDS011;1916;51.798;12.246;2023-03-01T02:10:54;16.87;;;10.83;;
3801;SDS011;1916;51.798;12.246;2023-03-01T02:12:57;16.10;;;9.77;;
3801;SDS011;1916;51.798;12.246;2023-03-01T02:14:59;19.43;;;10.13;;
3801;SDS011;1916;51.798;12.246;2023-03-01T02:17:01;14.13;;;9.98;;
3801;SDS011;1916;51.798;12.246;2023-03-01T02:19:04;17.30;;;9.50;;
3801;SDS011;1916;51.798;12.246;2023-03-01T02:23:21;18.67;;;11.10;;
3801;SDS011;1916;51.798;12.246;2023-03-01T02:25:35;16.53;;;11.37;;
3801;SDS011;1916;51.798;12.246;2023-03-01T02:27:45;20.00;;;11.60;;
3801;SDS011;1916;51.798;12.246;2023-03-01T02:30:00;19.58;;;10.68;;
3801;SDS011;1916;51.798;12.246;2023-03-01T02:32:02;18.80;;;9.87;;
3801;SDS011;1916;51.798;12.246;2023-03-01T02:34:06;23.83;;;12.20;;
3801;SDS011;1916;51.798;12.246;2023-03-01T02:36:10;17.40;;;11.03;;
3801;SDS011;1916;51.798;12.246;2023-03-01T02:38:16;21.40;;;10.40;;
3801;SDS011;1916;51.798;12.246;2023-03-01T02:40:18;23.33;;;12.40;;
3801;SDS011;1916;51.798;12.246;2023-03-01T02:42:27;17.70;;;11.83;;
3801;SDS011;1916;51.798;12.246;2023-03-01T02:44:32;21.40;;;12.70;;
3801;SDS011;1916;51.798;12.246;2023-03-01T02:46:41;20.97;;;11.73;;
3801;SDS011;1916;51.798;12.246;2023-03-01T02:48:47;20.60;;;11.30;;
3801;SDS011;1916;51.798;12.246;2023-03-01T02:55:22;21.40;;;11.70;;
3801;SDS011;1916;51.798;12.246;2023-03-01T02:57:24;23.80;;;13.23;;
3801;SDS011;1916;51.798;12.246;2023-03-01T02:59:29;19.30;;;12.03;;
3801;SDS011;1916;51.798;12.246;2023-03-01T03:01:33;21.03;;;12.10;;
3801;SDS011;1916;51.798;12.246;2023-03-01T03:03:40;22.10;;;10.57;;
3801;SDS011;1916;51.798;12.246;2023-03-01T03:05:43;24.40;;;11.87;;
3801;SDS011;1916;51.798;12.246;2023-03-01T03:07:45;23.40;;;11.40;;
3801;SDS011;1916;51.798;12.246;2023-03-01T03:09:48;32.33;;;12.50;;
3801;SDS011;1916;51.798;12.246;2023-03-01T03:11:50;20.37;;;11.93;;
3801;SDS011;1916;51.798;12.246;2023-03-01T03:13:53;25.33;;;12.00;;
3801;SDS011;1916;51.798;12.246;2023-03-01T03:15:55;21.33;;;12.80;;
3801;SDS011;1916;51.798;12.246;2023-03-01T03:17:58;20.93;;;11.57;;
3801;SDS011;1916;51.798;12.246;2023-03-01T03:20:01;18.37;;;10.43;;
3801;SDS011;1916;51.798;12.246;2023-03-01T03:22:04;21.20;;;12.30;;
3801;SDS011;1916;51.798;12.246;2023-03-01T03:24:06;25.83;;;12.57;;
3801;SDS011;1916;51.798;12.246;2023-03-01T03:26:08;21.30;;;11.70;;
3801;SDS011;1916;51.798;12.246;2023-03-01T03:28:15;18.77;;;10.77;;
3801;SDS011;1916;51.798;12.246;2023-03-01T03:30:18;18.27;;;10.67;;
3801;SDS011;1916;51.798;12.246;2023-03-01T03:32:21;25.42;;;12.40;;
3801;SDS011;1916;51.798;12.246;2023-03-01T03:34:23;17.10;;;11.03;;
3801;SDS011;1916;51.798;12.246;2023-03-01T03:36:25;25.00;;;12.90;;
3801;SDS011;1916;51.798;12.246;2023-03-01T03:38:27;26.90;;;12.90;;
3801;SDS011;1916;51.798;12.246;2023-03-01T03:40:37;25.90;;;11.90;;
3801;SDS011;1916;51.798;12.246;2023-03-01T03:42:42;18.73;;;12.57;;
3801;SDS011;1916;51.798;12.246;2023-03-01T03:44:44;22.07;;;12.83;;
3801;SDS011;1916;51.798;12.246;2023-03-01T03:46:46;21.33;;;12.00;;
3801;SDS011;1916;51.798;12.246;2023-03-01T03:48:48;20.67;;;12.68;;
3801;SDS011;1916;51.798;12.246;2023-03-01T03:50:53;26.67;;;13.30;;
3801;SDS011;1916;51.798;12.246;2023-03-01T03:52:56;19.53;;;11.10;;
3801;SDS011;1916;51.798;12.246;2023-03-01T03:54:58;19.43;;;11.23;;
3801;SDS011;1916;51.798;12.246;2023-03-01T03:56:59;24.63;;;12.80;;
3801;SDS011;1916;51.798;12.246;2023-03-01T03:59:02;25.63;;;11.83;;
3801;SDS011;1916;51.798;12.246;2023-03-01T04:01:04;27.47;;;11.80;;
3801;SDS011;1916;51.798;12.246;2023-03-01T04:03:06;20.07;;;11.07;;
3801;SDS011;1916;51.798;12.246;2023-03-01T04:05:10;19.27;;;11.90;;
3801;SDS011;1916;51.798;12.246;2023-03-01T04:07:13;18.03;;;10.40;;
3801;SDS011;1916;51.798;12.246;2023-03-01T04:09:15;19.60;;;10.80;;
3801;SDS011;1916;51.798;12.246;2023-03-01T04:11:17;19.33;;;10.77;;
3801;SDS011;1916;51.798;12.246;2023-03-01T04:13:28;22.63;;;10.60;;
3801;SDS011;1916;51.798;12.246;2023-03-01T04:15:31;18.80;;;11.87;;
3801;SDS011;1916;51.798;12.246;2023-03-01T04:17:33;20.40;;;10.37;;
3801;SDS011;1916;51.798;12.246;2023-03-01T04:19:36;13.47;;;8.93;;
3801;SDS011;1916;51.798;12.246;2023-03-01T04:21:38;19.57;;;11.73;;
3801;SDS011;1916;51.798;12.246;2023-03-01T04:23:40;16.03;;;10.10;;
3801;SDS011;1916;51.798;12.246;2023-03-01T04:25:45;21.90;;;10.73;;
3801;SDS011;1916;51.798;12.246;2023-03-01T04:27:51;19.07;;;11.17;;
3801;SDS011;1916;51.798;12.246;2023-03-01T04:29:53;21.57;;;11.83;;
3801;SDS011;1916;51.798;12.246;2023-03-01T04:31:55;19.70;;;11.00;;
3801;SDS011;1916;51.798;12.246;2023-03-01T04:33:57;18.33;;;11.03;;
3801;SDS011;1916;51.798;12.246;2023-03-01T04:35:59;15.75;;;10.60;;
3801;SDS011;1916;51.798;12.246;2023-03-01T04:38:01;17.77;;;11.10;;
3801;SDS011;1916;51.798;12.246;2023-03-01T04:40:04;20.55;;;10.90;;
3801;SDS011;1916;51.798;12.246;2023-03-01T04:42:14;21.77;;;10.63;;
3801;SDS011;1916;51.798;12.246;2023-03-01T04:44:18;18.87;;;10.90;;
3801;SDS011;1916;51.798;12.246;2023-03-01T04:46:21;19.63;;;10.98;;
3801;SDS011;1916;51.798;12.246;2023-03-01T04:48:23;17.87;;;11.13;;
3801;SDS011;1916;51.798;12.246;2023-03-01T04:50:25;26.20;;;11.88;;
3801;SDS011;1916;51.798;12.246;2023-03-01T04:52:27;20.95;;;11.82;;
3801;SDS011;1916;51.798;12.246;2023-03-01T04:54:32;16.57;;;10.33;;
3801;SDS011;1916;51.798;12.246;2023-03-01T04:56:35;21.70;;;11.23;;
3801;SDS011;1916;51.798;12.246;2023-03-01T04:58:37;21.15;;;12.13;;
3801;SDS011;1916;51.798;12.246;2023-03-01T05:00:39;17.02;;;11.40;;
3801;SDS011;1916;51.798;12.246;2023-03-01T05:02:41;21.43;;;11.30;;
3801;SDS011;1916;51.798;12.246;2023-03-01T05:04:44;18.73;;;10.57;;
3801;SDS011;1916;51.798;12.246;2023-03-01T05:06:46;24.90;;;12.00;;
3801;SDS011;1916;51.798;12.246;2023-03-01T05:08:48;19.97;;;10.27;;
3801;SDS011;1916;51.798;12.246;2023-03-01T05:10:51;17.13;;;10.17;;
3801;SDS011;1916;51.798;12.246;2023-03-01T05:12:54;18.37;;;10.07;;
3801;SDS011;1916;51.798;12.246;2023-03-01T05:14:56;17.83;;;8.80;;
3801;SDS011;1916;51.798;12.246;2023-03-01T05:16:59;17.47;;;9.47;;
3801;SDS011;1916;51.798;12.246;2023-03-01T05:19:05;16.83;;;10.20;;
3801;SDS011;1916;51.798;12.246;2023-03-01T05:21:13;17.87;;;9.67;;
3801;SDS011;1916;51.798;12.246;2023-03-01T05:23:18;14.80;;;9.33;;
3801;SDS011;1916;51.798;12.246;2023-03-01T05:25:20;17.07;;;9.00;;
3801;SDS011;1916;51.798;12.246;2023-03-01T05:27:23;13.53;;;9.07;;
3801;SDS011;1916;51.798;12.246;2023-03-01T05:29:26;17.13;;;8.80;;
3801;SDS011;1916;51.798;12.246;2023-03-01T05:31:29;19.70;;;10.40;;
3801;SDS011;1916;51.798;12.246;2023-03-01T05:33:32;13.07;;;9.20;;
3801;SDS011;1916;51.798;12.246;2023-03-01T05:35:34;17.27;;;9.27;;
3801;SDS011;1916;51.798;12.246;2023-03-01T05:37:36;14.53;;;9.60;;
3801;SDS011;1916;51.798;12.246;2023-03-01T05:39:38;17.23;;;9.90;;
3801;SDS011;1916;51.798;12.246;2023-03-01T05:41:41;14.63;;;8.87;;
3801;SDS011;1916;51.798;12.246;2023-03-01T05:43:43;19.17;;;9.70;;
3801;SDS011;1916;51.798;12.246;2023-03-01T05:45:46;16.50;;;10.63;;
3801;SDS011;1916;51.798;12.246;2023-03-01T05:47:49;15.70;;;9.20;;
3801;SDS011;1916;51.798;12.246;2023-03-01T05:49:51;21.53;;;10.77;;
3801;SDS011;1916;51.798;12.246;2023-03-01T05:51:53;16.10;;;10.17;;
3801;SDS011;1916;51.798;12.246;2023-03-01T05:53:56;14.40;;;9.20;;
3801;SDS011;1916;51.798;12.246;2023-03-01T05:55:58;20.73;;;10.57;;
3801;SDS011;1916;51.798;12.246;2023-03-01T05:58:01;22.23;;;10.13;;
3801;SDS011;1916;51.798;12.246;2023-03-01T06:00:05;19.57;;;10.23;;
3801;SDS011;1916;51.798;12.246;2023-03-01T06:02:14;18.73;;;10.40;;
3801;SDS011;1916;51.798;12.246;2023-03-01T06:04:16;15.83;;;10.00;;
3801;SDS011;1916;51.798;12.246;2023-03-01T06:06:18;18.27;;;10.60;;
3801;SDS011;1916;51.798;12.246;2023-03-01T06:08:19;15.90;;;9.63;;
3801;SDS011;1916;51.798;12.246;2023-03-01T06:10:23;18.30;;;9.40;;
3801;SDS011;1916;51.798;12.246;2023-03-01T06:12:25;17.67;;;10.57;;
3801;SDS011;1916;51.798;12.246;2023-03-01T06:14:27;21.30;;;10.37;;
3801;SDS011;1916;51.798;12.246;2023-03-01T06:16:29;19.70;;;11.10;;
3801;SDS011;1916;51.798;12.246;2023-03-01T06:18:32;18.47;;;9.63;;
3801;SDS011;1916;51.798;12.246;2023-03-01T06:20:34;16.30;;;11.67;;
3801;SDS011;1916;51.798;12.246;2023-03-01T06:22:37;16.47;;;10.80;;
3801;SDS011;1916;51.798;12.246;2023-03-01T06:24:39;16.80;;;10.33;;
3801;SDS011;1916;51.798;12.246;2023-03-01T06:26:42;19.50;;;10.47;;
3801;SDS011;1916;51.798;12.246;2023-03-01T06:28:44;23.93;;;11.70;;
3801;SDS011;1916;51.798;12.246;2023-03-01T06:30:48;21.07;;;10.50;;
3801;SDS011;1916;51.798;12.246;2023-03-01T06:32:51;18.87;;;10.03;;
3801;SDS011;1916;51.798;12.246;2023-03-01T06:34:53;18.90;;;11.23;;
3801;SDS011;1916;51.798;12.246;2023-03-01T06:36:55;36.80;;;10.27;;
3801;SDS011;1916;51.798;12.246;2023-03-01T06:38:57;18.27;;;11.33;;
3801;SDS011;1916;51.798;12.246;2023-03-01T06:40:59;17.03;;;10.30;;
3801;SDS011;1916;51.798;12.246;2023-03-01T06:43:02;15.87;;;9.83;;
3801;SDS011;1916;51.798;12.246;2023-03-01T06:45:05;18.60;;;12.73;;
3801;SDS011;1916;51.798;12.246;2023-03-01T06:47:08;22.23;;;11.43;;
3801;SDS011;1916;51.798;12.246;2023-03-01T06:49:10;20.73;;;11.10;;
3801;SDS011;1916;51.798;12.246;2023-03-01T06:51:12;22.93;;;11.20;;
3801;SDS011;1916;51.798;12.246;2023-03-01T06:53:14;19.67;;;11.80;;
3801;SDS011;1916;51.798;12.246;2023-03-01T06:55:16;18.30;;;11.00;;
3801;SDS011;1916;51.798;12.246;2023-03-01T06:57:18;25.07;;;12.30;;
3801;SDS011;1916;51.798;12.246;2023-03-01T06:59:20;27.77;;;11.23;;
3801;SDS011;1916;51.798;12.246;2023-03-01T07:01:22;16.40;;;11.27;;
3801;SDS011;1916;51.798;12.246;2023-03-01T07:03:24;20.83;;;10.93;;
3801;SDS011;1916;51.798;12.246;2023-03-01T07:05:26;21.53;;;11.80;;
3801;SDS011;1916;51.798;12.246;2023-03-01T07:07:28;22.47;;;14.83;;
3801;SDS011;1916;51.798;12.246;2023-03-01T07:09:30;27.67;;;11.63;;
3801;SDS011;1916;51.798;12.246;2023-03-01T07:11:33;30.97;;;13.53;;
3801;SDS011;1916;51.798;12.246;2023-03-01T07:13:35;28.20;;;12.80;;
3801;SDS011;1916;51.798;12.246;2023-03-01T07:15:36;23.17;;;12.37;;
3801;SDS011;1916;51.798;12.246;2023-03-01T07:17:38;27.00;;;13.67;;
3801;SDS011;1916;51.798;12.246;2023-03-01T07:19:41;27.80;;;13.53;;
3801;SDS011;1916;51.798;12.246;2023-03-01T07:21:43;22.20;;;12.80;;
3801;SDS011;1916;51.798;12.246;2023-03-01T07:23:46;20.53;;;13.10;;
3801;SDS011;1916;51.798;12.246;2023-03-01T07:25:54;22.07;;;13.80;;
3801;SDS011;1916;51.798;12.246;2023-03-01T07:27:56;29.90;;;14.93;;
3801;SDS011;1916;51.798;12.246;2023-03-01T07:29:58;20.30;;;14.33;;
3801;SDS011;1916;51.798;12.246;2023-03-01T07:32:00;23.30;;;14.00;;
3801;SDS011;1916;51.798;12.246;2023-03-01T07:34:02;23.87;;;14.50;;
3801;SDS011;1916;51.798;12.246;2023-03-01T07:36:05;21.13;;;14.77;;
3801;SDS011;1916;51.798;12.246;2023-03-01T07:38:07;22.60;;;15.10;;
3801;SDS011;1916;51.798;12.246;2023-03-01T07:40:10;23.40;;;14.47;;
3801;SDS011;1916;51.798;12.246;2023-03-01T07:42:13;24.30;;;13.90;;
3801;SDS011;1916;51.798;12.246;2023-03-01T07:44:15;24.80;;;14.77;;
3801;SDS011;1916;51.798;12.246;2023-03-01T07:46:18;32.83;;;16.93;;
3801;SDS011;1916;51.798;12.246;2023-03-01T07:48:21;25.47;;;15.70;;
3801;SDS011;1916;51.798;12.246;2023-03-01T07:50:23;26.73;;;17.20;;
3801;SDS011;1916;51.798;12.246;2023-03-01T07:52:25;30.20;;;18.10;;
3801;SDS011;1916;51.798;12.246;2023-03-01T07:54:27;31.00;;;15.93;;
3801;SDS011;1916;51.798;12.246;2023-03-01T07:56:30;25.53;;;15.53;;
3801;SDS011;1916;51.798;12.246;2023-03-01T07:58:40;18.60;;;12.50;;
3801;SDS011;1916;51.798;12.246;2023-03-01T08:00:43;18.73;;;13.10;;
3801;SDS011;1916;51.798;12.246;2023-03-01T08:02:46;16.80;;;11.23;;
3801;SDS011;1916;51.798;12.246;2023-03-01T08:04:48;16.20;;;11.00;;
3801;SDS011;1916;51.798;12.246;2023-03-01T08:06:50;16.70;;;11.13;;
3801;SDS011;1916;51.798;12.246;2023-03-01T08:08:52;17.10;;;10.73;;
3801;SDS011;1916;51.798;12.246;2023-03-01T08:10:57;16.23;;;10.63;;
3801;SDS011;1916;51.798;12.246;2023-03-01T08:13:02;16.00;;;11.20;;
3801;SDS011;1916;51.798;12.246;2023-03-01T08:15:04;13.83;;;9.50;;
3801;SDS011;1916;51.798;12.246;2023-03-01T08:17:07;18.10;;;10.73;;
3801;SDS011;1916;51.798;12.246;2023-03-01T08:19:10;17.07;;;10.17;;
3801;SDS011;1916;51.798;12.246;2023-03-01T08:21:14;15.23;;;10.80;;
3801;SDS011;1916;51.798;12.246;2023-03-01T08:23:18;15.27;;;10.53;;
3801;SDS011;1916;51.798;12.246;2023-03-01T08:25:20;14.77;;;10.50;;
3801;SDS011;1916;51.798;12.246;2023-03-01T08:27:22;14.17;;;10.57;;
3801;SDS011;1916;51.798;12.246;2023-03-01T08:29:25;13.43;;;9.57;;
3801;SDS011;1916;51.798;12.246;2023-03-01T08:31:28;16.63;;;10.63;;
3801;SDS011;1916;51.798;12.246;2023-03-01T08:33:32;13.93;;;9.87;;
3801;SDS011;1916;51.798;12.246;2023-03-01T08:35:34;16.30;;;10.10;;
3801;SDS011;1916;51.798;12.246;2023-03-01T08:37:36;14.40;;;9.80;;
3801;SDS011;1916;51.798;12.246;2023-03-01T08:39:38;14.33;;;9.30;;
3801;SDS011;1916;51.798;12.246;2023-03-01T08:41:40;14.00;;;8.47;;
3801;SDS011;1916;51.798;12.246;2023-03-01T08:43:43;11.40;;;8.50;;
3801;SDS011;1916;51.798;12.246;2023-03-01T08:45:45;13.00;;;8.43;;
3801;SDS011;1916;51.798;12.246;2023-03-01T08:47:52;14.20;;;9.00;;
3801;SDS011;1916;51.798;12.246;2023-03-01T08:49:54;12.07;;;9.13;;
3801;SDS011;1916;51.798;12.246;2023-03-01T08:51:56;13.93;;;9.23;;
3801;SDS011;1916;51.798;12.246;2023-03-01T08:53:59;13.80;;;9.40;;
3801;SDS011;1916;51.798;12.246;2023-03-01T08:56:00;15.40;;;9.30;;
3801;SDS011;1916;51.798;12.246;2023-03-01T08:58:04;12.07;;;8.90;;
3801;SDS011;1916;51.798;12.246;2023-03-01T09:00:06;15.73;;;8.80;;
3801;SDS011;1916;51.798;12.246;2023-03-01T09:02:12;12.33;;;8.07;;
3801;SDS011;1916;51.798;12.246;2023-03-01T09:04:15;11.33;;;7.90;;
3801;SDS011;1916;51.798;12.246;2023-03-01T09:06:18;13.70;;;9.77;;
3801;SDS011;1916;51.798;12.246;2023-03-01T09:08:20;12.17;;;9.00;;
3801;SDS011;1916;51.798;12.246;2023-03-01T09:10:22;14.60;;;8.80;;
3801;SDS011;1916;51.798;12.246;2023-03-01T09:12:25;9.87;;;7.83;;
3801;SDS011;1916;51.798;12.246;2023-03-01T09:14:27;13.97;;;8.57;;
3801;SDS011;1916;51.798;12.246;2023-03-01T09:16:29;10.73;;;8.30;;
3801;SDS011;1916;51.798;12.246;2023-03-01T09:18:32;10.97;;;8.80;;
3801;SDS011;1916;51.798;12.246;2023-03-01T09:20:34;13.77;;;8.70;;
3801;SDS011;1916;51.798;12.246;2023-03-01T09:22:36;12.10;;;8.27;;
3801;SDS011;1916;51.798;12.246;2023-03-01T09:24:39;14.07;;;9.10;;
3801;SDS011;1916;51.798;12.246;2023-03-01T09:26:42;10.80;;;8.77;;
3801;SDS011;1916;51.798;12.246;2023-03-01T09:28:45;14.60;;;9.63;;
3801;SDS011;1916;51.798;12.246;2023-03-01T09:30:47;14.70;;;8.80;;
3801;SDS011;1916;51.798;12.246;2023-03-01T09:32:49;13.70;;;8.73;;
3801;SDS011;1916;51.798;12.246;2023-03-01T09:34:51;11.20;;;9.27;;
3801;SDS011;1916;51.798;12.246;2023-03-01T09:37:05;12.30;;;9.70;;
3801;SDS011;1916;51.798;12.246;2023-03-01T09:39:07;12.90;;;9.10;;
3801;SDS011;1916;51.798;12.246;2023-03-01T09:43:47;14.93;;;10.40;;
3801;SDS011;1916;51.798;12.246;2023-03-01T09:45:59;14.97;;;10.33;;
3801;SDS011;1916;51.798;12.246;2023-03-01T09:48:05;15.00;;;9.73;;
3801;SDS011;1916;51.798;12.246;2023-03-01T09:52:41;16.23;;;9.40;;
3801;SDS011;1916;51.798;12.246;2023-03-01T09:54:56;12.60;;;8.93;;
3801;SDS011;1916;51.798;12.246;2023-03-01T09:57:04;12.17;;;9.33;;
3801;SDS011;1916;51.798;12.246;2023-03-01T10:03:39;13.90;;;9.40;;
3801;SDS011;1916;51.798;12.246;2023-03-01T10:07:54;14.43;;;8.50;;
3801;SDS011;1916;51.798;12.246;2023-03-01T10:10:05;10.40;;;7.80;;
3801;SDS011;1916;51.798;12.246;2023-03-01T10:12:14;10.77;;;7.97;;
3801;SDS011;1916;51.798;12.246;2023-03-01T10:14:35;12.27;;;7.80;;
3801;SDS011;1916;51.798;12.246;2023-03-01T10:16:51;13.43;;;8.97;;
3801;SDS011;1916;51.798;12.246;2023-03-01T10:18:58;12.13;;;7.70;;
3801;SDS011;1916;51.798;12.246;2023-03-01T10:21:05;10.10;;;8.30;;
3801;SDS011;1916;51.798;12.246;2023-03-01T10:23:15;10.27;;;7.10;;
3801;SDS011;1916;51.798;12.246;2023-03-01T10:25:20;11.57;;;6.87;;
3801;SDS011;1916;51.798;12.246;2023-03-01T10:30:01;12.57;;;7.27;;
3801;SDS011;1916;51.798;12.246;2023-03-01T10:32:08;10.40;;;7.20;;
3801;SDS011;1916;51.798;12.246;2023-03-01T10:36:15;10.87;;;6.67;;
3801;SDS011;1916;51.798;12.246;2023-03-01T10:38:18;12.40;;;7.93;;
3801;SDS011;1916;51.798;12.246;2023-03-01T10:40:22;11.67;;;7.90;;
3801;SDS011;1916;51.798;12.246;2023-03-01T10:42:29;11.23;;;8.20;;
3801;SDS011;1916;51.798;12.246;2023-03-01T10:44:36;13.10;;;8.30;;
3801;SDS011;1916;51.798;12.246;2023-03-01T10:46:40;13.43;;;8.90;;
3801;SDS011;1916;51.798;12.246;2023-03-01T10:48:42;11.80;;;8.20;;
3801;SDS011;1916;51.798;12.246;2023-03-01T10:50:45;13.17;;;8.37;;
3801;SDS011;1916;51.798;12.246;2023-03-01T10:52:56;19.20;;;8.43;;
3801;SDS011;1916;51.798;12.246;2023-03-01T10:55:02;11.90;;;8.10;;
3801;SDS011;1916;51.798;12.246;2023-03-01T10:57:10;12.20;;;7.90;;
3801;SDS011;1916;51.798;12.246;2023-03-01T10:59:30;9.80;;;7.97;;
3801;SDS011;1916;51.798;12.246;2023-03-01T11:01:36;12.87;;;8.40;;
3801;SDS011;1916;51.798;12.246;2023-03-01T11:03:38;15.47;;;8.50;;
3801;SDS011;1916;51.798;12.246;2023-03-01T11:05:50;14.03;;;9.17;;
3801;SDS011;1916;51.798;12.246;2023-03-01T11:07:53;18.10;;;9.30;;
3801;SDS011;1916;51.798;12.246;2023-03-01T11:09:56;15.83;;;10.03;;
3801;SDS011;1916;51.798;12.246;2023-03-01T11:11:59;16.97;;;9.73;;
3801;SDS011;1916;51.798;12.246;2023-03-01T11:18:36;9.87;;;7.97;;
3801;SDS011;1916;51.798;12.246;2023-03-01T11:20:49;11.00;;;8.27;;
3801;SDS011;1916;51.798;12.246;2023-03-01T11:22:57;12.27;;;8.90;;
3801;SDS011;1916;51.798;12.246;2023-03-01T11:25:03;12.40;;;8.30;;
3801;SDS011;1916;51.798;12.246;2023-03-01T11:27:16;11.43;;;8.83;;
3801;SDS011;1916;51.798;12.246;2023-03-01T11:31:40;13.13;;;9.00;;
3801;SDS011;1916;51.798;12.246;2023-03-01T11:33:59;13.33;;;8.90;;
3801;SDS011;1916;51.798;12.246;2023-03-01T11:36:07;13.20;;;8.80;;
3801;SDS011;1916;51.798;12.246;2023-03-01T11:38:22;14.90;;;7.73;;
3801;SDS011;1916;51.798;12.246;2023-03-01T11:40:27;11.80;;;7.67;;
3801;SDS011;1916;51.798;12.246;2023-03-01T11:42:43;13.97;;;7.50;;
3801;SDS011;1916;51.798;12.246;2023-03-01T11:44:51;11.03;;;8.47;;
3801;SDS011;1916;51.798;12.246;2023-03-01T11:47:02;12.00;;;7.97;;
3801;SDS011;1916;51.798;12.246;2023-03-01T11:51:44;10.93;;;7.73;;
3801;SDS011;1916;51.798;12.246;2023-03-01T11:53:53;11.37;;;5.87;;
3801;SDS011;1916;51.798;12.246;2023-03-01T11:58:20;7.67;;;5.37;;
3801;SDS011;1916;51.798;12.246;2023-03-01T12:00:53;7.20;;;5.20;;
3801;SDS011;1916;51.798;12.246;2023-03-01T12:10:22;8.57;;;6.07;;
3801;SDS011;1916;51.798;12.246;2023-03-01T12:12:33;9.50;;;6.40;;
3801;SDS011;1916;51.798;12.246;2023-03-01T12:23:51;6.50;;;5.10;;
3801;SDS011;1916;51.798;12.246;2023-03-01T12:28:41;8.30;;;5.10;;
3801;SDS011;1916;51.798;12.246;2023-03-01T12:47:43;9.53;;;4.87;;
3801;SDS011;1916;51.798;12.246;2023-03-01T12:50:14;6.83;;;5.07;;
3801;SDS011;1916;51.798;12.246;2023-03-01T12:52:41;7.90;;;6.10;;
3801;SDS011;1916;51.798;12.246;2023-03-01T12:54:45;7.93;;;6.57;;
3801;SDS011;1916;51.798;12.246;2023-03-01T12:56:47;9.53;;;5.80;;
3801;SDS011;1916;51.798;12.246;2023-03-01T12:59:07;5.50;;;4.73;;
3801;SDS011;1916;51.798;12.246;2023-03-01T13:09:07;7.37;;;5.83;;
3801;SDS011;1916;51.798;12.246;2023-03-01T13:11:07;6.43;;;5.33;;
3801;SDS011;1916;51.798;12.246;2023-03-01T13:13:21;8.27;;;5.60;;
3801;SDS011;1916;51.798;12.246;2023-03-01T13:15:28;7.63;;;5.63;;
3801;SDS011;1916;51.798;12.246;2023-03-01T13:17:33;8.80;;;6.13;;
3801;SDS011;1916;51.798;12.246;2023-03-01T13:19:43;8.07;;;6.30;;
3801;SDS011;1916;51.798;12.246;2023-03-01T13:21:58;7.17;;;5.70;;
3801;SDS011;1916;51.798;12.246;2023-03-01T13:24:00;9.83;;;6.43;;
3801;SDS011;1916;51.798;12.246;2023-03-01T13:26:04;10.13;;;5.53;;
3801;SDS011;1916;51.798;12.246;2023-03-01T13:32:36;9.20;;;6.80;;
3801;SDS011;1916;51.798;12.246;2023-03-01T13:34:46;6.87;;;5.90;;
3801;SDS011;1916;51.798;12.246;2023-03-01T13:36:50;8.80;;;5.53;;
3801;SDS011;1916;51.798;12.246;2023-03-01T13:38:56;8.13;;;5.30;;
3801;SDS011;1916;51.798;12.246;2023-03-01T13:40:59;7.83;;;5.50;;
3801;SDS011;1916;51.798;12.246;2023-03-01T13:43:25;10.03;;;6.97;;
3801;SDS011;1916;51.798;12.246;2023-03-01T13:45:40;7.53;;;5.07;;
3801;SDS011;1916;51.798;12.246;2023-03-01T13:47:43;6.37;;;5.27;;